Data for 09/24/2005

Time Sea-Level Adjusted Pressure Absolute Pressure Temperature Relative Humidity Dew Point   
(mb) (inHg) (mb) (inHg) (C) (F) (%) (C) (F)
00:05 1017 30.03 846 24.98 2.5 36.5 90 1.1 33.9
00:10 1017 30.03 846 24.98 2.5 36.5 91 1.2 34.1
00:15 1017 30.03 846 24.98 2.5 36.4 91 1.1 34
00:20 1017 30.03 847 25.01 2.5 36.5 91 1.2 34.2
00:25 1017 30.03 847 25.01 2.5 36.4 92 1.3 34.4
00:30 1017 30.03 846 24.98 2.5 36.5 92 1.4 34.5
00:35 1017 30.03 846 24.98 2.4 36.4 92 1.3 34.3
00:40 1017 30.03 846 24.98 2.5 36.5 92 1.4 34.5
00:45 1017 30.03 846 24.98 2.4 36.3 93 1.4 34.5
00:50 1017 30.03 846 24.98 2.3 36.2 93 1.3 34.4
00:55 1017 30.03 846 24.98 2.3 36.1 94 1.4 34.5
01:00 1017 30.03 846 24.98 2.2 36 95 1.4 34.5
01:05 1017 30.03 846 24.98 2.2 36 94 1.4 34.4
01:10 1017 30.03 846 24.98 2.2 36 93 1.3 34.3
01:15 1017 30.03 846 24.98 2.3 36.2 94 1.4 34.5
01:20 1017 30.03 846 24.98 2.4 36.3 93 1.4 34.5
01:25 1017 30.03 846 24.98 2.4 36.3 93 1.4 34.5
01:30 1017 30.03 846 24.98 2.4 36.3 93 1.3 34.4
01:35 1017 30.03 846 24.98 2.4 36.4 92 1.3 34.4
01:40 1017 30.03 846 24.98 2.5 36.5 93 1.4 34.6
01:45 1017 30.03 846 24.98 2.6 36.6 93 1.5 34.7
01:50 1018 30.06 847 25.01 2.5 36.4 93 1.5 34.6
01:55 1017 30.03 846 24.98 2.5 36.4 93 1.5 34.7
02:00 1016 30 845 24.95 2.3 36.2 93 1.3 34.3
02:05 1016 30 845 24.95 2.1 35.8 94 1.3 34.3
02:10 1016 30 845 24.95 1.9 35.5 96 1.3 34.3
02:15 1016 30 846 24.98 1.9 35.5 95 1.2 34.2
02:20 1016 30 846 24.98 1.9 35.5 95 1.3 34.3
02:25 1016 30 845 24.95 2 35.6 95 1.3 34.3
02:30 1016 30 845 24.95 2.2 35.9 95 1.4 34.6
02:35 1016 30 845 24.95 2.3 36.1 94 1.3 34.4
02:40 1016 30 845 24.95 2.4 36.4 93 1.3 34.4
02:45 1016 30 845 24.95 2.6 36.6 91 1.3 34.3
02:50 1016 30 845 24.95 2.8 37 90 1.3 34.3
02:55 1016 30 845 24.95 2.9 37.2 89 1.3 34.3
03:00 1016 30 845 24.95 2.9 37.2 89 1.3 34.3
03:05 1016 30 845 24.95 2.8 37.1 89 1.2 34.2
03:10 1016 30 845 24.95 2.7 36.9 90 1.3 34.3
03:15 1016 30 845 24.95 2.6 36.6 90 1.1 34
03:20 1016 30 845 24.95 2.6 36.6 91 1.3 34.3
03:25 1016 30 845 24.95 2.5 36.6 90 1.1 34.1
03:30 1016 30 845 24.95 2.5 36.5 90 1.1 33.9
03:35 1016 30 845 24.95 2.5 36.4 91 1.1 34
03:40 1016 30 845 24.95 2.4 36.3 92 1.1 34
03:45 1016 30 845 24.95 2.3 36.1 92 1.1 34
03:50 1016 30 845 24.95 2.4 36.2 92 1.1 34
03:55 1016 30 845 24.95 2.3 36.2 93 1.2 34.2
04:00 1016 30 845 24.95 2.3 36.1 93 1.2 34.2
04:05 1016 30 845 24.95 2.3 36.1 93 1.3 34.3
04:10 1016 30 845 24.95 2.4 36.3 92 1.2 34.2
04:15 1016 30 845 24.95 2.4 36.4 92 1.3 34.3
04:20 1016 30 845 24.95 2.4 36.4 92 1.2 34.2
04:25 1016 30 845 24.95 2.5 36.6 91 1.2 34.2
04:30 1016 30 845 24.95 2.6 36.6 91 1.3 34.3
04:35 1016 30 845 24.95 2.6 36.7 91 1.3 34.3
04:40 1016 30 845 24.95 2.6 36.7 91 1.2 34.2
04:45 1016 30 845 24.95 2.6 36.7 92 1.5 34.7
04:50 1016 30 845 24.95 2.6 36.6 91 1.3 34.4
04:55 1016 30 845 24.95 2.6 36.6 93 1.5 34.7
05:00 1015 29.97 845 24.95 2.5 36.5 92 1.3 34.3
05:05 1015 29.97 845 24.95 2.5 36.5 92 1.3 34.3
05:10 1015 29.97 845 24.95 2.5 36.6 91 1.3 34.3
05:15 1015 29.97 845 24.95 2.5 36.5 93 1.5 34.6
05:20 1015 29.97 845 24.95 2.5 36.5 92 1.4 34.5
05:25 1015 29.97 845 24.95 2.5 36.5 92 1.3 34.4
05:30 1015 29.97 845 24.95 2.5 36.5 92 1.3 34.3
05:35 1015 29.97 845 24.95 2.6 36.6 91 1.3 34.4
05:40 1015 29.97 845 24.95 2.6 36.7 91 1.2 34.2
05:45 1015 29.97 845 24.95 2.6 36.8 91 1.3 34.3
05:50 1015 29.97 845 24.95 2.7 36.8 91 1.3 34.4
05:55 1015 29.97 845 24.95 2.6 36.7 92 1.4 34.6
06:00 1015 29.97 845 24.95 2.5 36.5 92 1.4 34.5
06:05 1015 29.97 845 24.95 2.4 36.4 93 1.4 34.5
06:10 1015 29.97 845 24.95 2.4 36.3 93 1.4 34.5
06:15 1015 29.97 844 24.92 2.4 36.4 92 1.3 34.4
06:20 1015 29.97 844 24.92 2.5 36.5 92 1.4 34.6
06:25 1015 29.97 844 24.92 2.5 36.5 92 1.3 34.3
06:30 1015 29.97 845 24.95 2.6 36.7 92 1.4 34.6
06:35 1015 29.97 844 24.92 2.7 36.9 90 1.3 34.3
06:40 1015 29.97 844 24.92 2.8 37 90 1.3 34.3
06:45 1015 29.97 845 24.95 2.8 37.1 91 1.5 34.7
06:50 1015 29.97 845 24.95 2.9 37.2 90 1.4 34.5
06:55 1015 29.97 845 24.95 2.8 37 91 1.4 34.5
07:00 1015 29.97 845 24.95 2.7 36.9 91 1.4 34.6
07:05 1015 29.97 844 24.92 2.6 36.7 92 1.4 34.6
07:10 1015 29.97 844 24.92 2.6 36.7 91 1.3 34.4
07:15 1015 29.97 844 24.92 2.6 36.8 91 1.3 34.4
07:20 1015 29.97 844 24.92 2.6 36.8 91 1.3 34.4
07:25 1015 29.97 844 24.92 2.7 36.8 91 1.3 34.4
07:30 1015 29.97 844 24.92 2.6 36.7 91 1.3 34.4
07:35 1015 29.97 844 24.92 2.6 36.7 91 1.3 34.4
07:40 1015 29.97 844 24.92 2.6 36.7 92 1.4 34.5
07:45 1015 29.97 844 24.92 2.6 36.7 92 1.5 34.7
07:50 1015 29.97 844 24.92 2.6 36.7 93 1.6 34.8
07:55 1015 29.97 845 24.95 2.6 36.6 94 1.6 34.9
08:00 1015 29.97 844 24.92 2.6 36.6 94 1.7 35
08:05 1015 29.97 844 24.92 2.6 36.7 94 1.7 35.1
08:10 1015 29.97 845 24.95 2.6 36.7 94 1.8 35.3
08:15 1015 29.97 845 24.95 2.7 36.9 94 1.8 35.3
08:20 1015 29.97 845 24.95 2.7 36.9 94 1.8 35.3
08:25 1015 29.97 845 24.95 2.8 37 94 1.9 35.4
08:30 1015 29.97 845 24.95 2.9 37.2 93 1.9 35.3
08:35 1016 30 845 24.95 3 37.3 92 1.8 35.3
08:40 1015 29.97 845 24.95 3 37.4 92 1.9 35.4
08:45 1016 30 845 24.95 3 37.5 92 1.9 35.4
08:50 1016 30 845 24.95 3.1 37.6 92 2 35.6
08:55 1016 30 845 24.95 3.1 37.7 92 2 35.5
09:00 1016 30 845 24.95 3.2 37.7 92 2 35.6
09:05 1016 30 845 24.95 3.2 37.8 92 2 35.5
09:10 1016 30 845 24.95 3.3 37.9 91 1.9 35.5
09:15 1016 30 845 24.95 3.4 38.1 91 2 35.6
09:20 1016 30 845 24.95 3.4 38.1 91 2 35.7
09:25 1016 30 845 24.95 3.5 38.2 90 2 35.6
09:30 1016 30 845 24.95 3.5 38.4 90 2.1 35.7
09:35 1016 30 845 24.95 3.6 38.5 89 2 35.6
09:40 1016 30 845 24.95 3.7 38.6 89 2 35.7
09:45 1016 30 845 24.95 3.7 38.7 89 2.1 35.7
09:50 1016 30 845 24.95 3.7 38.7 89 2.1 35.7
09:55 1016 30 846 24.98 3.7 38.7 89 2.1 35.8
10:00 1016 30 845 24.95 3.8 38.8 89 2 35.7
10:05 1016 30 845 24.95 3.8 38.8 89 2.1 35.8
10:10 1016 30 845 24.95 3.9 38.9 89 2.2 35.9
10:15 1016 30 845 24.95 4 39.2 88 2.2 36
10:20 1016 30 845 24.95 4.1 39.3 87 2.2 35.9
10:25 1016 30 845 24.95 4.1 39.5 87 2.2 36
10:30 1016 30 845 24.95 4.3 39.8 86 2.3 36.1
10:35 1016 30 845 24.95 4.5 40.1 86 2.3 36.1
10:40 1016 30 845 24.95 4.6 40.2 85 2.2 36
10:45 1016 30 845 24.95 4.6 40.3 85 2.3 36.1
10:50 1016 30 845 24.95 4.6 40.3 85 2.3 36.2
10:55 1016 30 845 24.95 4.5 40.1 86 2.3 36.2
11:00 1016 30 845 24.95 4.4 40 86 2.3 36.1
11:05 1016 30 845 24.95 4.4 39.9 86 2.2 36
11:10 1016 30 845 24.95 4.3 39.8 87 2.4 36.2
11:15 1016 30 845 24.95 4.3 39.7 87 2.3 36.2
11:20 1016 30 846 24.98 4.3 39.7 87 2.4 36.2
11:25 1016 30 845 24.95 4.3 39.8 87 2.3 36.1
11:30 1016 30 845 24.95 4.4 39.8 87 2.3 36.2
11:35 1016 30 845 24.95 4.4 39.8 87 2.4 36.3
11:40 1016 30 846 24.98 4.4 40 87 2.5 36.5
11:45 1016 30 845 24.95 4.5 40.1 86 2.3 36.2
11:50 1016 30 846 24.98 4.5 40.1 86 2.4 36.3
11:55 1016 30 846 24.98 4.5 40.1 87 2.5 36.4
12:00 1016 30 846 24.98 4.5 40.2 86 2.4 36.4
12:05 1017 30.03 846 24.98 4.6 40.2 86 2.4 36.4
12:10 1017 30.03 846 24.98 4.6 40.3 86 2.4 36.4
12:15 1017 30.03 846 24.98 4.6 40.3 85 2.4 36.3
12:20 1017 30.03 846 24.98 4.7 40.5 85 2.4 36.4
12:25 1017 30.03 846 24.98 4.7 40.5 86 2.6 36.7
12:30 1017 30.03 846 24.98 4.7 40.5 86 2.6 36.7
12:35 1017 30.03 846 24.98 4.8 40.7 87 2.9 37.1
12:40 1017 30.03 846 24.98 4.6 40.2 89 2.9 37.1
12:45 1017 30.03 846 24.98 4.8 40.6 88 3 37.4
12:50 1017 30.03 846 24.98 4.9 40.9 88 3.1 37.5
12:55 1017 30.03 846 24.98 5 41 86 2.9 37.2
13:00 1017 30.03 846 24.98 5.1 41.2 86 2.9 37.2
13:05 1017 30.03 846 24.98 5.2 41.4 84 2.8 37.1
13:10 1017 30.03 846 24.98 5.1 41.1 88 3.2 37.8
13:15 1017 30.03 846 24.98 4.8 40.7 88 3 37.4
13:20 1017 30.03 846 24.98 4.9 40.8 88 3 37.4
13:25 1017 30.03 846 24.98 4.9 40.7 89 3.2 37.8
13:30 1017 30.03 846 24.98 4.7 40.5 90 3.2 37.7
13:35 1017 30.03 846 24.98 4.8 40.7 89 3.1 37.6
13:40 1017 30.03 846 24.98 4.8 40.6 89 3.2 37.7
13:45 1017 30.03 846 24.98 4.7 40.5 89 3.1 37.6
13:50 1017 30.03 846 24.98 4.5 40.2 90 3.1 37.5
13:55 1017 30.03 846 24.98 4.6 40.4 90 3.1 37.6
14:00 1017 30.03 846 24.98 4.7 40.5 88 2.9 37.2
14:05 1017 30.03 846 24.98 4.9 40.9 88 3.1 37.6
14:10 1017 30.03 846 24.98 4.9 40.8 90 3.3 38
14:15 1017 30.03 846 24.98 4.9 40.8 87 2.8 37.1
14:20 1017 30.03 846 24.98 5.1 41.1 86 2.9 37.2
14:25 1017 30.03 846 24.98 5.1 41.2 86 2.9 37.3
14:30 1017 30.03 846 24.98 5.1 41.2 86 3 37.5
14:35 1017 30.03 846 24.98 5.1 41.1 87 3 37.5
14:40 1017 30.03 846 24.98 5.1 41.2 86 3.1 37.5
14:45 1017 30.03 846 24.98 5.1 41.2 87 3.1 37.6
14:50 1017 30.03 846 24.98 5.3 41.5 86 3.1 37.6
14:55 1017 30.03 846 24.98 5.3 41.6 86 3.2 37.7
15:00 1017 30.03 846 24.98 5.3 41.5 86 3.1 37.6
15:05 1017 30.03 846 24.98 5.5 41.8 85 3.1 37.6
15:10 1017 30.03 846 24.98 5.4 41.7 85 3.1 37.6
15:15 1017 30.03 846 24.98 5.3 41.6 85 3 37.4
15:20 1017 30.03 846 24.98 5.3 41.5 85 3 37.4
15:25 1017 30.03 846 24.98 5.3 41.6 85 3 37.3
15:30 1017 30.03 846 24.98 5.3 41.6 85 3 37.4
15:35 1017 30.03 846 24.98 5.4 41.8 85 3.1 37.6
15:40 1017 30.03 846 24.98 5.6 42 84 3.1 37.6
15:45 1017 30.03 846 24.98 5.6 42 84 3 37.5
15:50 1017 30.03 846 24.98 5.6 42.1 84 3.1 37.6
15:55 1017 30.03 846 24.98 5.5 41.9 83 2.9 37.2
16:00 1017 30.03 846 24.98 5.5 42 84 3.1 37.5
16:05 1017 30.03 846 24.98 5.6 42 83 3 37.4
16:10 1017 30.03 846 24.98 5.7 42.3 83 3 37.4
16:15 1017 30.03 847 25.01 5.7 42.3 83 3.1 37.7
16:20 1017 30.03 847 25.01 5.7 42.2 85 3.4 38.1
16:25 1017 30.03 847 25.01 5.6 42.1 85 3.3 37.9
16:30 1018 30.06 847 25.01 5.5 41.9 87 3.6 38.4
16:35 1018 30.06 847 25.01 5.5 41.8 86 3.4 38.1
16:40 1017 30.03 847 25.01 5.4 41.8 86 3.2 37.8
16:45 1017 30.03 847 25.01 5.4 41.7 87 3.4 38.1
16:50 1018 30.06 847 25.01 5.3 41.6 88 3.4 38.2
16:55 1017 30.03 847 25.01 5.3 41.6 87 3.4 38.1
17:00 1017 30.03 847 25.01 5.6 42 86 3.3 38
17:05 1017 30.03 847 25.01 5.5 41.9 87 3.5 38.2
17:10 1017 30.03 847 25.01 5.4 41.8 88 3.5 38.4
17:15 1017 30.03 847 25.01 5.5 42 85 3.2 37.7
17:20 1017 30.03 847 25.01 5.6 42.1 85 3.2 37.8
17:25 1017 30.03 847 25.01 5.7 42.2 84 3.2 37.7
17:30 1017 30.03 847 25.01 5.6 42 84 3.1 37.6
17:35 1018 30.06 847 25.01 5.5 42 85 3.2 37.8
17:40 1018 30.06 847 25.01 5.5 41.9 85 3.1 37.6
17:45 1018 30.06 847 25.01 5.5 41.9 85 3.1 37.6
17:50 1018 30.06 847 25.01 5.4 41.8 85 3 37.5
17:55 1018 30.06 847 25.01 5.4 41.8 85 3.1 37.6
18:00 1018 30.06 847 25.01 5.5 41.8 85 3.1 37.6
18:05 1018 30.06 847 25.01 5.4 41.7 85 3.1 37.5
18:10 1018 30.06 847 25.01 5.4 41.7 86 3.2 37.7
18:15 1018 30.06 847 25.01 5.3 41.5 86 3.1 37.6
18:20 1018 30.06 847 25.01 5.3 41.5 87 3.2 37.8
18:25 1018 30.06 847 25.01 5.2 41.4 86 3.2 37.7
18:30 1018 30.06 847 25.01 5.2 41.4 87 3.2 37.7
18:35 1018 30.06 847 25.01 5.1 41.1 87 3.1 37.5
18:40 1018 30.06 847 25.01 5.1 41.2 86 3 37.4
18:45 1018 30.06 847 25.01 5.3 41.5 86 3 37.4
18:50 1018 30.06 847 25.01 5.3 41.5 85 2.9 37.2
18:55 1018 30.06 847 25.01 5.3 41.5 85 2.9 37.2
19:00 1018 30.06 848 25.04 5.3 41.6 85 3 37.3
19:05 1018 30.06 848 25.04 5.3 41.5 85 3 37.5
19:10 1018 30.06 848 25.04 5.3 41.6 85 3.1 37.5
19:15 1018 30.06 848 25.04 5.3 41.5 85 3 37.5
19:20 1018 30.06 848 25.04 5.2 41.4 86 3 37.4
19:25 1019 30.09 848 25.04 5.2 41.4 85 2.9 37.3
19:30 1019 30.09 848 25.04 5.3 41.5 85 3 37.4
19:35 1019 30.09 848 25.04 5.3 41.5 85 3 37.3
19:40 1019 30.09 848 25.04 5.4 41.7 86 3.1 37.7
19:45 1019 30.09 848 25.04 5.3 41.5 86 3.1 37.6
19:50 1019 30.09 848 25.04 5.3 41.6 86 3.2 37.7
19:55 1019 30.09 848 25.04 5.4 41.7 87 3.3 38
20:00 1019 30.09 848 25.04 5.4 41.7 86 3.2 37.7
20:05 1019 30.09 848 25.04 5.3 41.5 86 3.1 37.7
20:10 1019 30.09 848 25.04 5.2 41.4 86 3.1 37.6
20:15 1019 30.09 848 25.04 5.3 41.5 86 3.1 37.6
20:20 1019 30.09 848 25.04 5.3 41.5 86 3.2 37.7
20:25 1019 30.09 848 25.04 5.3 41.6 86 3.2 37.8
20:30 1019 30.09 848 25.04 5.3 41.6 87 3.3 37.9
20:35 1019 30.09 848 25.04 5.3 41.5 87 3.2 37.8
20:40 1019 30.09 848 25.04 5.2 41.4 87 3.2 37.8
20:45 1019 30.09 848 25.04 5.2 41.3 87 3.2 37.8
20:50 1019 30.09 848 25.04 5.2 41.4 88 3.3 38
20:55 1019 30.09 848 25.04 5.2 41.3 88 3.3 38
21:00 1019 30.09 848 25.04 5.2 41.4 87 3.3 37.9
21:05 1019 30.09 848 25.04 5.1 41.3 88 3.3 37.9
21:10 1019 30.09 848 25.04 5.1 41.2 88 3.2 37.8
21:15 1019 30.09 848 25.04 5.1 41.2 88 3.2 37.8
21:20 1019 30.09 849 25.07 5.2 41.3 87 3.2 37.7
21:25 1019 30.09 849 25.07 5.1 41.3 86 3 37.5
21:30 1019 30.09 849 25.07 5.1 41.3 86 3 37.5
21:35 1019 30.09 849 25.07 5.1 41.2 86 3.1 37.5
21:40 1019 30.09 849 25.07 5.2 41.4 86 3.1 37.6
21:45 1019 30.09 849 25.07 5.2 41.4 86 3.1 37.6
21:50 1019 30.09 849 25.07 5.1 41.3 86 3 37.4
21:55 1019 30.09 849 25.07 5.2 41.3 87 3.1 37.6
22:00 1019 30.09 849 25.07 5.1 41.3 87 3.2 37.7
22:05 1019 30.09 849 25.07 5.2 41.3 87 3.2 37.7
22:10 1019 30.09 849 25.07 5.2 41.3 87 3.2 37.8
22:15 1019 30.09 849 25.07 5.2 41.3 87 3.2 37.8
22:20 1019 30.09 848 25.04 5.1 41.2 87 3.1 37.6
22:25 1019 30.09 848 25.04 5.1 41.2 87 3.1 37.6
22:30 1019 30.09 848 25.04 5.2 41.3 86 3 37.5
22:35 1019 30.09 848 25.04 5.2 41.4 87 3.1 37.7
22:40 1019 30.09 848 25.04 5.2 41.4 87 3.3 37.9
22:45 1019 30.09 848 25.04 5.2 41.3 88 3.4 38.1
22:50 1019 30.09 849 25.07 5.2 41.3 91 3.8 38.8
22:55 1019 30.09 848 25.04 5.1 41.2 92 3.9 39
23:00 1019 30.09 848 25.04 5.1 41.1 93 4.1 39.3
23:05 1019 30.09 848 25.04 5.2 41.3 93 4.1 39.3
23:10 1019 30.09 849 25.07 5.3 41.6 92 4.1 39.4
23:15 1019 30.09 849 25.07 5.5 41.9 92 4.3 39.7
23:20 1019 30.09 849 25.07 5.5 41.9 92 4.3 39.8
23:25 1019 30.09 849 25.07 5.5 41.8 93 4.4 39.9
23:30 1019 30.09 849 25.07 5.4 41.7 93 4.3 39.8
23:35 1019 30.09 849 25.07 5.3 41.5 94 4.3 39.8
23:40 1019 30.09 848 25.04 5.3 41.5 93 4.3 39.8
23:45 1019 30.09 849 25.07 5.3 41.6 93 4.3 39.7
23:50 1019 30.09 849 25.07 5.3 41.5 93 4.3 39.7
23:55 1019 30.09 849 25.07 5.3 41.6 93 4.3 39.8
24:00 1019 30.09 848 25.04 5.4 41.7 93 4.3 39.8